sensor_id;sensor_type;location;lat;lon;timestamp;pressure;altitude;pressure_sealevel;temperature;humidity
7333;BME280;3707;43.618;25.342;2023-12-04T00:00:30;100920.69;;;3.20;100.00
7333;BME280;3707;43.618;25.342;2023-12-04T00:02:56;100929.06;;;3.18;100.00
7333;BME280;3707;43.618;25.342;2023-12-04T00:05:23;100924.81;;;3.33;98.19
7333;BME280;3707;43.618;25.342;2023-12-04T00:07:50;100901.31;;;3.25;99.07
7333;BME280;3707;43.618;25.342;2023-12-04T00:10:17;100927.66;;;3.37;99.29
7333;BME280;3707;43.618;25.342;2023-12-04T00:12:43;100925.81;;;3.20;99.19
7333;BME280;3707;43.618;25.342;2023-12-04T00:15:10;100921.28;;;3.16;100.00
7333;BME280;3707;43.618;25.342;2023-12-04T00:17:38;100933.50;;;3.20;99.91
7333;BME280;3707;43.618;25.342;2023-12-04T00:20:06;100930.22;;;3.23;100.00
7333;BME280;3707;43.618;25.342;2023-12-04T00:22:34;100938.34;;;3.01;100.00
7333;BME280;3707;43.618;25.342;2023-12-04T00:25:01;100940.13;;;3.02;100.00
7333;BME280;3707;43.618;25.342;2023-12-04T00:27:28;100947.22;;;2.93;100.00
7333;BME280;3707;43.618;25.342;2023-12-04T00:29:55;100948.66;;;2.88;100.00
7333;BME280;3707;43.618;25.342;2023-12-04T00:32:22;100947.44;;;2.96;100.00
7333;BME280;3707;43.618;25.342;2023-12-04T00:34:50;100940.72;;;2.98;100.00
7333;BME280;3707;43.618;25.342;2023-12-04T00:37:17;100915.97;;;2.69;100.00
7333;BME280;3707;43.618;25.342;2023-12-04T00:39:43;100952.19;;;2.90;100.00
7333;BME280;3707;43.618;25.342;2023-12-04T00:42:10;100954.13;;;2.94;99.92
7333;BME280;3707;43.618;25.342;2023-12-04T00:44:37;100953.41;;;2.82;100.00
7333;BME280;3707;43.618;25.342;2023-12-04T00:47:04;100958.28;;;2.92;99.12
7333;BME280;3707;43.618;25.342;2023-12-04T00:49:31;100953.22;;;2.79;99.47
7333;BME280;3707;43.618;25.342;2023-12-04T00:51:59;100963.78;;;2.98;100.00
7333;BME280;3707;43.618;25.342;2023-12-04T00:54:26;100960.28;;;2.83;100.00
7333;BME280;3707;43.618;25.342;2023-12-04T00:56:52;100955.88;;;2.80;98.85
7333;BME280;3707;43.618;25.342;2023-12-04T00:59:19;100972.50;;;2.87;99.00
7333;BME280;3707;43.618;25.342;2023-12-04T01:01:46;100979.22;;;2.85;99.32
7333;BME280;3707;43.618;25.342;2023-12-04T01:04:13;100982.84;;;2.88;98.59
7333;BME280;3707;43.618;25.342;2023-12-04T01:06:39;100965.25;;;2.80;98.48
7333;BME280;3707;43.618;25.342;2023-12-04T01:09:07;100980.28;;;2.88;98.05
7333;BME280;3707;43.618;25.342;2023-12-04T01:11:34;100990.13;;;2.82;97.33
7333;BME280;3707;43.618;25.342;2023-12-04T01:14:02;100973.44;;;2.74;97.99
7333;BME280;3707;43.618;25.342;2023-12-04T01:16:29;100985.38;;;2.74;99.65
7333;BME280;3707;43.618;25.342;2023-12-04T01:18:56;100997.75;;;2.81;98.14
7333;BME280;3707;43.618;25.342;2023-12-04T01:21:23;100986.16;;;2.73;97.97
7333;BME280;3707;43.618;25.342;2023-12-04T01:23:49;100968.41;;;2.76;97.76
7333;BME280;3707;43.618;25.342;2023-12-04T01:26:17;100984.06;;;2.80;97.57
7333;BME280;3707;43.618;25.342;2023-12-04T01:28:44;100982.38;;;2.81;96.60
7333;BME280;3707;43.618;25.342;2023-12-04T01:31:11;100983.78;;;2.76;96.21
7333;BME280;3707;43.618;25.342;2023-12-04T01:33:38;100989.25;;;2.82;95.94
7333;BME280;3707;43.618;25.342;2023-12-04T01:36:05;100991.31;;;2.87;95.25
7333;BME280;3707;43.618;25.342;2023-12-04T01:38:32;100993.47;;;2.67;96.15
7333;BME280;3707;43.618;25.342;2023-12-04T01:40:59;100986.81;;;2.56;97.22
7333;BME280;3707;43.618;25.342;2023-12-04T01:43:27;100987.34;;;2.65;96.92
7333;BME280;3707;43.618;25.342;2023-12-04T01:45:55;100954.19;;;2.38;97.33
7333;BME280;3707;43.618;25.342;2023-12-04T01:48:23;100965.56;;;2.43;97.16
7333;BME280;3707;43.618;25.342;2023-12-04T01:50:51;100993.34;;;2.65;98.34
7333;BME280;3707;43.618;25.342;2023-12-04T01:53:18;100995.31;;;2.69;97.64
7333;BME280;3707;43.618;25.342;2023-12-04T01:55:45;100989.72;;;2.62;97.78
7333;BME280;3707;43.618;25.342;2023-12-04T01:58:12;100997.28;;;2.45;98.85
7333;BME280;3707;43.618;25.342;2023-12-04T02:00:41;100999.59;;;2.56;97.35
7333;BME280;3707;43.618;25.342;2023-12-04T02:03:08;100968.34;;;2.33;97.96
7333;BME280;3707;43.618;25.342;2023-12-04T02:05:36;100993.53;;;2.40;98.09
7333;BME280;3707;43.618;25.342;2023-12-04T02:08:04;100969.06;;;2.31;97.81
7333;BME280;3707;43.618;25.342;2023-12-04T02:10:30;100957.75;;;2.27;96.92
7333;BME280;3707;43.618;25.342;2023-12-04T02:12:57;101009.25;;;2.46;96.65
7333;BME280;3707;43.618;25.342;2023-12-04T02:15:24;101012.63;;;2.32;97.03
7333;BME280;3707;43.618;25.342;2023-12-04T02:17:54;101013.53;;;2.33;98.94
7333;BME280;3707;43.618;25.342;2023-12-04T02:20:30;101012.44;;;2.42;97.96
7333;BME280;3707;43.618;25.342;2023-12-04T02:22:57;101018.94;;;2.37;97.09
7333;BME280;3707;43.618;25.342;2023-12-04T02:25:25;100987.38;;;2.11;97.46
7333;BME280;3707;43.618;25.342;2023-12-04T02:27:53;100978.22;;;2.14;96.18
7333;BME280;3707;43.618;25.342;2023-12-04T02:30:23;101030.13;;;2.53;95.38
7333;BME280;3707;43.618;25.342;2023-12-04T02:32:51;101030.19;;;2.26;96.42
7333;BME280;3707;43.618;25.342;2023-12-04T02:35:21;101006.78;;;2.20;96.28
7333;BME280;3707;43.618;25.342;2023-12-04T02:37:49;101041.78;;;2.21;96.69
7333;BME280;3707;43.618;25.342;2023-12-04T02:40:17;101045.13;;;2.33;94.74
7333;BME280;3707;43.618;25.342;2023-12-04T02:42:45;101038.56;;;2.24;95.06
7333;BME280;3707;43.618;25.342;2023-12-04T02:45:12;101052.50;;;2.29;94.33
7333;BME280;3707;43.618;25.342;2023-12-04T02:47:39;101037.75;;;2.25;94.32
7333;BME280;3707;43.618;25.342;2023-12-04T02:50:07;101048.19;;;2.28;93.59
7333;BME280;3707;43.618;25.342;2023-12-04T02:52:33;101035.00;;;2.09;94.46
7333;BME280;3707;43.618;25.342;2023-12-04T02:55:00;101048.88;;;2.25;95.34
7333;BME280;3707;43.618;25.342;2023-12-04T02:57:27;101047.22;;;2.13;94.19
7333;BME280;3707;43.618;25.342;2023-12-04T02:59:55;101044.44;;;2.23;94.10
7333;BME280;3707;43.618;25.342;2023-12-04T03:02:22;101053.41;;;2.16;95.72
7333;BME280;3707;43.618;25.342;2023-12-04T03:04:49;101037.69;;;2.10;94.96
7333;BME280;3707;43.618;25.342;2023-12-04T03:07:15;101039.63;;;2.01;95.23
7333;BME280;3707;43.618;25.342;2023-12-04T03:09:45;101042.19;;;2.27;94.39
7333;BME280;3707;43.618;25.342;2023-12-04T03:12:12;101049.28;;;2.05;93.81
7333;BME280;3707;43.618;25.342;2023-12-04T03:14:39;101036.88;;;1.98;94.65
7333;BME280;3707;43.618;25.342;2023-12-04T03:17:07;101062.28;;;1.95;94.69
7333;BME280;3707;43.618;25.342;2023-12-04T03:19:34;100958.59;;;1.21;95.43
7333;BME280;3707;43.618;25.342;2023-12-04T03:22:01;101024.59;;;1.79;94.88
7333;BME280;3707;43.618;25.342;2023-12-04T03:24:28;100944.56;;;1.28;94.02
7333;BME280;3707;43.618;25.342;2023-12-04T03:26:55;101037.69;;;1.84;93.79
7333;BME280;3707;43.618;25.342;2023-12-04T03:29:21;101012.31;;;1.74;94.27
7333;BME280;3707;43.618;25.342;2023-12-04T03:31:48;101064.63;;;2.05;94.49
7333;BME280;3707;43.618;25.342;2023-12-04T03:34:16;101072.56;;;1.96;93.70
7333;BME280;3707;43.618;25.342;2023-12-04T03:36:43;101066.69;;;1.97;93.24
7333;BME280;3707;43.618;25.342;2023-12-04T03:39:10;101074.66;;;2.02;93.60
7333;BME280;3707;43.618;25.342;2023-12-04T03:41:36;101066.41;;;2.06;93.05
7333;BME280;3707;43.618;25.342;2023-12-04T03:44:03;101084.38;;;1.94;93.99
7333;BME280;3707;43.618;25.342;2023-12-04T03:46:30;101048.69;;;1.70;93.83
7333;BME280;3707;43.618;25.342;2023-12-04T03:48:57;101088.22;;;2.01;93.34
7333;BME280;3707;43.618;25.342;2023-12-04T03:51:25;101096.47;;;1.97;93.98
7333;BME280;3707;43.618;25.342;2023-12-04T03:53:52;101088.03;;;1.85;94.27
7333;BME280;3707;43.618;25.342;2023-12-04T03:56:19;101091.75;;;1.90;92.84
7333;BME280;3707;43.618;25.342;2023-12-04T03:58:46;101090.22;;;2.31;98.04
7333;BME280;3707;43.618;25.342;2023-12-04T04:01:12;101089.22;;;2.03;94.04
7333;BME280;3707;43.618;25.342;2023-12-04T04:03:39;101074.47;;;1.99;94.01
7333;BME280;3707;43.618;25.342;2023-12-04T04:06:08;101069.31;;;1.86;93.88
7333;BME280;3707;43.618;25.342;2023-12-04T04:08:37;101087.84;;;1.95;94.78
7333;BME280;3707;43.618;25.342;2023-12-04T04:11:03;101097.19;;;1.94;94.84
7333;BME280;3707;43.618;25.342;2023-12-04T04:13:30;101059.50;;;1.79;94.69
7333;BME280;3707;43.618;25.342;2023-12-04T04:15:57;101092.19;;;1.96;94.78
7333;BME280;3707;43.618;25.342;2023-12-04T04:18:24;101070.72;;;1.81;93.96
7333;BME280;3707;43.618;25.342;2023-12-04T04:20:51;101098.06;;;1.95;95.54
7333;BME280;3707;43.618;25.342;2023-12-04T04:23:17;101091.88;;;1.91;95.22
7333;BME280;3707;43.618;25.342;2023-12-04T04:25:45;101104.19;;;2.10;100.00
7333;BME280;3707;43.618;25.342;2023-12-04T04:28:12;101082.34;;;1.89;100.00
7333;BME280;3707;43.618;25.342;2023-12-04T04:30:39;101103.97;;;2.07;100.00
7333;BME280;3707;43.618;25.342;2023-12-04T04:33:06;101101.63;;;2.10;97.32
7333;BME280;3707;43.618;25.342;2023-12-04T04:35:33;101098.34;;;1.86;96.56
7333;BME280;3707;43.618;25.342;2023-12-04T04:37:59;101111.13;;;1.86;95.92
7333;BME280;3707;43.618;25.342;2023-12-04T04:40:26;101111.25;;;1.88;96.68
7333;BME280;3707;43.618;25.342;2023-12-04T04:42:54;101119.31;;;1.94;98.36
7333;BME280;3707;43.618;25.342;2023-12-04T04:45:21;101103.75;;;1.91;98.11
7333;BME280;3707;43.618;25.342;2023-12-04T04:47:48;101115.72;;;1.79;98.08
7333;BME280;3707;43.618;25.342;2023-12-04T04:50:15;101078.84;;;1.62;100.00
7333;BME280;3707;43.618;25.342;2023-12-04T04:52:41;101125.03;;;1.65;100.00
7333;BME280;3707;43.618;25.342;2023-12-04T04:55:08;101132.91;;;1.68;100.00
7333;BME280;3707;43.618;25.342;2023-12-04T04:57:35;101102.09;;;1.54;100.00
7333;BME280;3707;43.618;25.342;2023-12-04T05:00:04;101125.56;;;1.73;100.00
7333;BME280;3707;43.618;25.342;2023-12-04T05:02:31;101134.22;;;1.75;100.00
7333;BME280;3707;43.618;25.342;2023-12-04T05:04:57;101101.38;;;1.43;100.00
7333;BME280;3707;43.618;25.342;2023-12-04T05:07:24;101123.78;;;1.72;100.00
7333;BME280;3707;43.618;25.342;2023-12-04T05:09:51;101124.31;;;1.55;99.17
7333;BME280;3707;43.618;25.342;2023-12-04T05:12:18;101126.50;;;1.62;98.87
7333;BME280;3707;43.618;25.342;2023-12-04T05:14:44;101024.25;;;0.86;100.00
7333;BME280;3707;43.618;25.342;2023-12-04T05:17:13;101134.75;;;1.58;99.54
7333;BME280;3707;43.618;25.342;2023-12-04T05:19:39;101126.06;;;1.42;99.79
7333;BME280;3707;43.618;25.342;2023-12-04T05:22:07;101141.44;;;1.56;99.03
7333;BME280;3707;43.618;25.342;2023-12-04T05:24:34;101151.09;;;1.60;98.91
7333;BME280;3707;43.618;25.342;2023-12-04T05:27:01;101149.47;;;1.48;98.89
7333;BME280;3707;43.618;25.342;2023-12-04T05:29:28;101155.38;;;1.47;98.80
7333;BME280;3707;43.618;25.342;2023-12-04T05:31:54;101155.28;;;1.46;98.22
7333;BME280;3707;43.618;25.342;2023-12-04T05:34:24;101140.06;;;1.61;98.61
7333;BME280;3707;43.618;25.342;2023-12-04T05:36:50;101162.97;;;1.59;97.45
7333;BME280;3707;43.618;25.342;2023-12-04T05:39:17;101158.19;;;1.64;97.66
7333;BME280;3707;43.618;25.342;2023-12-04T05:41:44;101139.94;;;1.46;97.82
7333;BME280;3707;43.618;25.342;2023-12-04T05:44:10;101165.84;;;1.39;98.89
7333;BME280;3707;43.618;25.342;2023-12-04T05:46:37;101164.59;;;1.45;99.04
7333;BME280;3707;43.618;25.342;2023-12-04T05:49:04;101163.56;;;1.55;98.94
7333;BME280;3707;43.618;25.342;2023-12-04T05:51:32;101163.06;;;1.61;98.30
7333;BME280;3707;43.618;25.342;2023-12-04T05:53:59;101167.81;;;1.68;98.66
7333;BME280;3707;43.618;25.342;2023-12-04T05:56:26;101171.53;;;1.60;98.29
7333;BME280;3707;43.618;25.342;2023-12-04T05:58:52;101167.66;;;1.78;100.00
7333;BME280;3707;43.618;25.342;2023-12-04T06:01:19;101175.34;;;1.78;100.00
7333;BME280;3707;43.618;25.342;2023-12-04T06:03:46;101151.13;;;1.73;99.64
7333;BME280;3707;43.618;25.342;2023-12-04T06:06:13;101180.25;;;1.75;97.30
7333;BME280;3707;43.618;25.342;2023-12-04T06:08:41;101179.69;;;1.92;100.00
7333;BME280;3707;43.618;25.342;2023-12-04T06:11:07;101187.03;;;1.74;96.60
7333;BME280;3707;43.618;25.342;2023-12-04T06:13:34;101152.22;;;1.52;98.08
7333;BME280;3707;43.618;25.342;2023-12-04T06:16:01;101157.38;;;1.65;96.71
7333;BME280;3707;43.618;25.342;2023-12-04T06:18:28;101182.44;;;1.82;97.26
7333;BME280;3707;43.618;25.342;2023-12-04T06:20:55;101188.13;;;1.78;97.61
7333;BME280;3707;43.618;25.342;2023-12-04T06:23:22;101192.91;;;1.73;96.60
7333;BME280;3707;43.618;25.342;2023-12-04T06:25:51;101190.69;;;1.78;97.41
7333;BME280;3707;43.618;25.342;2023-12-04T06:28:18;101177.09;;;1.79;98.02
7333;BME280;3707;43.618;25.342;2023-12-04T06:30:46;101191.69;;;1.68;96.72
7333;BME280;3707;43.618;25.342;2023-12-04T06:33:13;101205.50;;;1.70;94.95
7333;BME280;3707;43.618;25.342;2023-12-04T06:35:41;101200.69;;;1.75;94.70
7333;BME280;3707;43.618;25.342;2023-12-04T06:38:08;101199.69;;;1.73;95.88
7333;BME280;3707;43.618;25.342;2023-12-04T06:40:35;101185.66;;;1.55;92.97
7333;BME280;3707;43.618;25.342;2023-12-04T06:43:04;101204.84;;;1.86;94.21
7333;BME280;3707;43.618;25.342;2023-12-04T06:45:31;101206.75;;;1.88;93.77
7333;BME280;3707;43.618;25.342;2023-12-04T06:47:59;101208.66;;;1.79;93.07
7333;BME280;3707;43.618;25.342;2023-12-04T06:50:26;101195.03;;;1.92;97.21
7333;BME280;3707;43.618;25.342;2023-12-04T06:52:53;101204.69;;;1.96;94.02
7333;BME280;3707;43.618;25.342;2023-12-04T06:55:20;101209.81;;;1.96;93.51
7333;BME280;3707;43.618;25.342;2023-12-04T06:57:46;101198.78;;;1.97;94.79
7333;BME280;3707;43.618;25.342;2023-12-04T07:00:15;101222.72;;;2.11;93.17
7333;BME280;3707;43.618;25.342;2023-12-04T07:02:43;101218.56;;;1.99;91.49
7333;BME280;3707;43.618;25.342;2023-12-04T07:05:09;101223.03;;;2.15;92.37
7333;BME280;3707;43.618;25.342;2023-12-04T07:07:36;101232.06;;;2.10;91.02
7333;BME280;3707;43.618;25.342;2023-12-04T07:10:04;101240.88;;;2.27;94.43
7333;BME280;3707;43.618;25.342;2023-12-04T07:12:30;101231.69;;;2.17;90.83
7333;BME280;3707;43.618;25.342;2023-12-04T07:14:57;101238.88;;;2.23;91.49
7333;BME280;3707;43.618;25.342;2023-12-04T07:17:25;101233.19;;;2.27;90.36
7333;BME280;3707;43.618;25.342;2023-12-04T07:19:52;101215.84;;;2.10;89.80
7333;BME280;3707;43.618;25.342;2023-12-04T07:22:19;101237.53;;;2.28;90.34
7333;BME280;3707;43.618;25.342;2023-12-04T07:24:46;101249.63;;;2.30;89.79
7333;BME280;3707;43.618;25.342;2023-12-04T07:27:13;101239.22;;;2.54;89.50
7333;BME280;3707;43.618;25.342;2023-12-04T07:29:39;101227.81;;;2.48;90.23
7333;BME280;3707;43.618;25.342;2023-12-04T07:32:06;101241.00;;;2.41;88.22
7333;BME280;3707;43.618;25.342;2023-12-04T07:34:35;101203.56;;;2.30;89.13
7333;BME280;3707;43.618;25.342;2023-12-04T07:37:02;101242.38;;;2.49;90.31
7333;BME280;3707;43.618;25.342;2023-12-04T07:39:29;101250.84;;;2.48;88.94
7333;BME280;3707;43.618;25.342;2023-12-04T07:41:56;101262.56;;;2.45;87.69
7333;BME280;3707;43.618;25.342;2023-12-04T07:44:22;101256.22;;;2.27;88.76
7333;BME280;3707;43.618;25.342;2023-12-04T07:46:49;101256.16;;;2.38;88.25
7333;BME280;3707;43.618;25.342;2023-12-04T07:49:16;101262.25;;;2.54;89.81
7333;BME280;3707;43.618;25.342;2023-12-04T07:51:44;101272.16;;;2.74;88.61
7333;BME280;3707;43.618;25.342;2023-12-04T07:54:11;101266.41;;;2.65;88.77
7333;BME280;3707;43.618;25.342;2023-12-04T07:56:37;101235.63;;;2.25;88.07
7333;BME280;3707;43.618;25.342;2023-12-04T07:59:04;101278.22;;;2.63;88.06
7333;BME280;3707;43.618;25.342;2023-12-04T08:01:31;101270.34;;;2.60;88.11
7333;BME280;3707;43.618;25.342;2023-12-04T08:03:58;101272.34;;;2.64;87.40
7333;BME280;3707;43.618;25.342;2023-12-04T08:06:24;101275.88;;;2.79;86.09
7333;BME280;3707;43.618;25.342;2023-12-04T08:08:53;101273.69;;;2.72;86.40
7333;BME280;3707;43.618;25.342;2023-12-04T08:11:19;101280.88;;;2.64;85.80
7333;BME280;3707;43.618;25.342;2023-12-04T08:13:46;101278.84;;;2.85;85.75
7333;BME280;3707;43.618;25.342;2023-12-04T08:16:13;101257.56;;;2.60;84.59
7333;BME280;3707;43.618;25.342;2023-12-04T08:18:41;101275.69;;;2.76;85.30
7333;BME280;3707;43.618;25.342;2023-12-04T08:21:09;101242.38;;;2.63;84.30
7333;BME280;3707;43.618;25.342;2023-12-04T08:23:35;101248.69;;;2.68;84.47
7333;BME280;3707;43.618;25.342;2023-12-04T08:26:04;101270.75;;;2.79;84.07
7333;BME280;3707;43.618;25.342;2023-12-04T08:28:32;101251.53;;;2.59;81.89
7333;BME280;3707;43.618;25.342;2023-12-04T08:30:59;101229.88;;;2.54;82.71
7333;BME280;3707;43.618;25.342;2023-12-04T08:33:26;101273.13;;;2.89;84.14
7333;BME280;3707;43.618;25.342;2023-12-04T08:35:52;101276.88;;;2.94;85.79
7333;BME280;3707;43.618;25.342;2023-12-04T08:38:20;101219.72;;;2.82;83.30
7333;BME280;3707;43.618;25.342;2023-12-04T08:40:46;101273.41;;;3.20;82.80
7333;BME280;3707;43.618;25.342;2023-12-04T08:43:14;101221.47;;;3.09;82.09
7333;BME280;3707;43.618;25.342;2023-12-04T08:45:41;101278.88;;;3.39;81.44
7333;BME280;3707;43.618;25.342;2023-12-04T08:48:08;101273.25;;;3.44;81.13
7333;BME280;3707;43.618;25.342;2023-12-04T08:50:35;101254.81;;;2.96;79.81
7333;BME280;3707;43.618;25.342;2023-12-04T08:53:03;101238.22;;;3.04;80.26
7333;BME280;3707;43.618;25.342;2023-12-04T08:55:30;101272.63;;;3.21;80.11
7333;BME280;3707;43.618;25.342;2023-12-04T08:57:57;101263.81;;;3.30;81.46
7333;BME280;3707;43.618;25.342;2023-12-04T09:00:25;101268.31;;;3.47;80.61
7333;BME280;3707;43.618;25.342;2023-12-04T09:02:51;101273.81;;;3.54;80.55
7333;BME280;3707;43.618;25.342;2023-12-04T09:05:18;101270.28;;;3.52;80.43
7333;BME280;3707;43.618;25.342;2023-12-04T09:07:45;101250.13;;;3.30;79.37
7333;BME280;3707;43.618;25.342;2023-12-04T09:10:12;101263.03;;;3.31;79.45
7333;BME280;3707;43.618;25.342;2023-12-04T09:12:39;101269.56;;;3.67;79.66
7333;BME280;3707;43.618;25.342;2023-12-04T09:15:06;101258.66;;;3.43;79.06
7333;BME280;3707;43.618;25.342;2023-12-04T09:17:34;101259.13;;;3.51;79.93
7333;BME280;3707;43.618;25.342;2023-12-04T09:20:01;101260.81;;;3.64;79.77
7333;BME280;3707;43.618;25.342;2023-12-04T09:22:31;101220.81;;;3.39;80.20
7333;BME280;3707;43.618;25.342;2023-12-04T09:25:00;101245.84;;;3.57;78.36
7333;BME280;3707;43.618;25.342;2023-12-04T09:27:27;101134.06;;;2.77;79.32
7333;BME280;3707;43.618;25.342;2023-12-04T09:29:53;101230.09;;;3.37;79.94
7333;BME280;3707;43.618;25.342;2023-12-04T09:32:20;101225.75;;;3.49;80.84
7333;BME280;3707;43.618;25.342;2023-12-04T09:34:48;101247.34;;;3.68;80.69
7333;BME280;3707;43.618;25.342;2023-12-04T09:37:15;101235.63;;;4.14;96.65
7333;BME280;3707;43.618;25.342;2023-12-04T09:39:42;101235.38;;;3.96;83.52
7333;BME280;3707;43.618;25.342;2023-12-04T09:42:09;101239.81;;;3.84;80.89
7333;BME280;3707;43.618;25.342;2023-12-04T09:44:37;101213.50;;;3.73;81.00
7333;BME280;3707;43.618;25.342;2023-12-04T09:47:04;101239.97;;;3.87;80.68
7333;BME280;3707;43.618;25.342;2023-12-04T09:49:32;101224.28;;;4.10;81.17
7333;BME280;3707;43.618;25.342;2023-12-04T09:52:00;101234.53;;;4.25;79.67
7333;BME280;3707;43.618;25.342;2023-12-04T09:54:28;101234.53;;;4.39;79.20
7333;BME280;3707;43.618;25.342;2023-12-04T09:56:56;101229.41;;;4.54;80.35
7333;BME280;3707;43.618;25.342;2023-12-04T09:59:24;101226.13;;;4.57;79.16
7333;BME280;3707;43.618;25.342;2023-12-04T10:01:51;101220.47;;;4.18;78.37
7333;BME280;3707;43.618;25.342;2023-12-04T10:04:19;101220.38;;;4.02;79.63
7333;BME280;3707;43.618;25.342;2023-12-04T10:06:49;101215.41;;;4.05;80.00
7333;BME280;3707;43.618;25.342;2023-12-04T10:09:19;101215.53;;;4.07;80.91
7333;BME280;3707;43.618;25.342;2023-12-04T10:11:48;101220.63;;;4.21;80.85
7333;BME280;3707;43.618;25.342;2023-12-04T10:14:18;101221.44;;;4.49;78.97
7333;BME280;3707;43.618;25.342;2023-12-04T10:16:45;101195.78;;;4.20;79.39
7333;BME280;3707;43.618;25.342;2023-12-04T10:19:16;101218.25;;;4.39;76.97
7333;BME280;3707;43.618;25.342;2023-12-04T10:21:44;101214.88;;;4.11;78.92
7333;BME280;3707;43.618;25.342;2023-12-04T10:24:11;101212.31;;;4.25;80.31
7333;BME280;3707;43.618;25.342;2023-12-04T10:26:49;101160.47;;;4.16;78.84
7333;BME280;3707;43.618;25.342;2023-12-04T10:29:17;101196.84;;;4.38;79.71
7333;BME280;3707;43.618;25.342;2023-12-04T10:31:43;101198.88;;;4.44;76.78
7333;BME280;3707;43.618;25.342;2023-12-04T10:34:10;101201.59;;;4.32;78.26
7333;BME280;3707;43.618;25.342;2023-12-04T10:36:37;101207.91;;;4.37;76.50
7333;BME280;3707;43.618;25.342;2023-12-04T10:39:04;101208.88;;;4.25;75.21
7333;BME280;3707;43.618;25.342;2023-12-04T10:41:31;101206.91;;;4.50;74.30
7333;BME280;3707;43.618;25.342;2023-12-04T10:43:59;101150.81;;;4.41;74.02
7333;BME280;3707;43.618;25.342;2023-12-04T10:46:27;101201.06;;;4.67;75.15
7333;BME280;3707;43.618;25.342;2023-12-04T10:48:56;101182.47;;;4.57;76.06
7333;BME280;3707;43.618;25.342;2023-12-04T10:51:23;101191.16;;;4.59;75.62
7333;BME280;3707;43.618;25.342;2023-12-04T10:53:52;101197.06;;;4.58;75.76
7333;BME280;3707;43.618;25.342;2023-12-04T10:56:25;101200.69;;;4.76;75.62
7333;BME280;3707;43.618;25.342;2023-12-04T10:58:54;101189.78;;;4.80;83.33
7333;BME280;3707;43.618;25.342;2023-12-04T11:01:25;101093.47;;;4.26;75.71
7333;BME280;3707;43.618;25.342;2023-12-04T11:03:56;101192.19;;;4.77;76.51
7333;BME280;3707;43.618;25.342;2023-12-04T11:06:27;101185.44;;;4.79;75.67
7333;BME280;3707;43.618;25.342;2023-12-04T11:08:57;101079.84;;;4.13;75.75
7333;BME280;3707;43.618;25.342;2023-12-04T11:11:27;101176.25;;;4.68;76.14
7333;BME280;3707;43.618;25.342;2023-12-04T11:13:56;101188.28;;;4.69;74.46
7333;BME280;3707;43.618;25.342;2023-12-04T11:16:30;101191.88;;;4.87;75.11
7333;BME280;3707;43.618;25.342;2023-12-04T11:19:09;101185.06;;;4.87;74.75
7333;BME280;3707;43.618;25.342;2023-12-04T11:21:39;101191.28;;;4.76;74.94
7333;BME280;3707;43.618;25.342;2023-12-04T11:24:06;101153.66;;;4.77;74.36
7333;BME280;3707;43.618;25.342;2023-12-04T11:26:34;101195.47;;;5.05;75.31
7333;BME280;3707;43.618;25.342;2023-12-04T11:29:01;101189.44;;;5.05;74.45
7333;BME280;3707;43.618;25.342;2023-12-04T11:31:31;101194.78;;;4.93;73.89
7333;BME280;3707;43.618;25.342;2023-12-04T11:34:01;101190.22;;;5.04;73.08
7333;BME280;3707;43.618;25.342;2023-12-04T11:36:29;101194.16;;;4.97;72.41
7333;BME280;3707;43.618;25.342;2023-12-04T11:38:56;101193.38;;;4.98;71.95
7333;BME280;3707;43.618;25.342;2023-12-04T11:41:23;101177.16;;;5.15;70.87
7333;BME280;3707;43.618;25.342;2023-12-04T11:43:51;101200.44;;;5.02;67.78
7333;BME280;3707;43.618;25.342;2023-12-04T11:46:19;101185.34;;;5.08;66.52
7333;BME280;3707;43.618;25.342;2023-12-04T11:48:50;101160.59;;;4.94;66.92
7333;BME280;3707;43.618;25.342;2023-12-04T11:51:47;101175.22;;;5.11;67.43
7333;BME280;3707;43.618;25.342;2023-12-04T11:54:17;101173.81;;;5.16;68.92
7333;BME280;3707;43.618;25.342;2023-12-04T11:56:59;101177.84;;;5.27;68.44
7333;BME280;3707;43.618;25.342;2023-12-04T11:59:26;101170.66;;;5.06;69.31
7333;BME280;3707;43.618;25.342;2023-12-04T12:01:54;101159.66;;;5.08;68.71
7333;BME280;3707;43.618;25.342;2023-12-04T12:04:23;101179.28;;;5.22;67.37
7333;BME280;3707;43.618;25.342;2023-12-04T12:06:50;101157.81;;;5.06;68.00
7333;BME280;3707;43.618;25.342;2023-12-04T12:09:18;101171.25;;;5.32;67.38
7333;BME280;3707;43.618;25.342;2023-12-04T12:11:45;101171.75;;;5.41;67.46
7333;BME280;3707;43.618;25.342;2023-12-04T12:14:12;101165.47;;;5.53;66.72
7333;BME280;3707;43.618;25.342;2023-12-04T12:16:39;101097.47;;;5.15;68.04
7333;BME280;3707;43.618;25.342;2023-12-04T12:19:07;101162.31;;;5.58;68.84
7333;BME280;3707;43.618;25.342;2023-12-04T12:21:36;101139.91;;;5.23;67.43
7333;BME280;3707;43.618;25.342;2023-12-04T12:24:03;101134.19;;;5.13;67.35
7333;BME280;3707;43.618;25.342;2023-12-04T12:26:32;101126.06;;;5.21;67.20
7333;BME280;3707;43.618;25.342;2023-12-04T12:28:58;101153.25;;;5.48;67.66
7333;BME280;3707;43.618;25.342;2023-12-04T12:31:25;101146.78;;;5.57;66.20
7333;BME280;3707;43.618;25.342;2023-12-04T12:33:52;101150.34;;;5.59;66.78
7333;BME280;3707;43.618;25.342;2023-12-04T12:36:19;101136.84;;;5.30;66.69
7333;BME280;3707;43.618;25.342;2023-12-04T12:38:47;101136.84;;;5.30;68.72
7333;BME280;3707;43.618;25.342;2023-12-04T12:41:15;101142.94;;;5.32;68.63
7333;BME280;3707;43.618;25.342;2023-12-04T12:43:43;101137.03;;;5.33;68.94
7333;BME280;3707;43.618;25.342;2023-12-04T12:46:10;101147.88;;;5.44;67.12
7333;BME280;3707;43.618;25.342;2023-12-04T12:48:37;101138.31;;;5.41;68.43
7333;BME280;3707;43.618;25.342;2023-12-04T12:51:04;101119.91;;;5.34;67.64
7333;BME280;3707;43.618;25.342;2023-12-04T12:53:32;101135.75;;;5.41;67.11
7333;BME280;3707;43.618;25.342;2023-12-04T12:56:00;101128.16;;;5.28;66.30
7333;BME280;3707;43.618;25.342;2023-12-04T12:58:27;101155.66;;;5.29;66.72
7333;BME280;3707;43.618;25.342;2023-12-04T13:00:54;101145.69;;;5.35;67.03
7333;BME280;3707;43.618;25.342;2023-12-04T13:03:21;101116.13;;;5.27;66.91
7333;BME280;3707;43.618;25.342;2023-12-04T13:05:48;101147.63;;;5.39;66.68
7333;BME280;3707;43.618;25.342;2023-12-04T13:08:15;101148.41;;;5.22;69.00
7333;BME280;3707;43.618;25.342;2023-12-04T13:10:42;101145.94;;;5.24;69.49